Time;durP1;ratioP1;P1;durP2;ratioP2;P2;SDS_P1;SDS_P2;PMS_P1;PMS_P2;Temp;Humidity;BMP_temperature;BMP_pressure;BME280_temperature;BME280_humidity;BME280_pressure;Samples;Min_cycle;Max_cycle;Signal;HPM_P1;HPM_P2
2021/03/14 00:00:11;;;;;;;42.53;20.07;;;2.30;99.90;;;;;;4190414;28;20289;-64
2021/03/14 00:02:13;;;;;;;42.73;20.67;;;2.20;99.90;;;;;;4192231;28;20350;-64
2021/03/14 00:04:14;;;;;;;45.93;22.47;;;2.20;99.90;;;;;;4192383;28;20307;-63
2021/03/14 00:06:16;;;;;;;52.63;24.17;;;2.10;99.90;;;;;;4190286;28;20285;-63
2021/03/14 00:08:19;;;;;;;45.40;24.00;;;2.10;99.90;;;;;;4192688;28;20741;-64
2021/03/14 00:10:21;;;;;;;40.27;22.57;;;2.00;99.90;;;;;;4191028;28;20334;-64
2021/03/14 00:12:22;;;;;;;47.37;23.33;;;2.00;99.90;;;;;;4192586;28;20293;-64
2021/03/14 00:14:23;;;;;;;50.93;24.83;;;1.90;99.90;;;;;;4191543;28;20695;-64
2021/03/14 00:16:24;;;;;;;48.83;25.20;;;1.90;99.90;;;;;;4192831;28;20699;-64
2021/03/14 00:18:30;;;;;;;56.93;27.33;;;1.90;99.90;;;;;;4191319;28;20274;-63
2021/03/14 00:20:32;;;;;;;53.13;23.83;;;1.90;99.90;;;;;;4192800;28;20277;-63
2021/03/14 00:22:33;;;;;;;55.43;27.57;;;1.80;99.90;;;;;;4191335;28;20660;-62
2021/03/14 00:24:34;;;;;;;54.30;25.60;;;1.80;99.90;;;;;;4191298;28;20339;-62
2021/03/14 00:26:35;;;;;;;49.17;23.73;;;1.70;99.90;;;;;;4191290;28;20265;-62
2021/03/14 00:28:36;;;;;;;53.33;25.40;;;1.70;99.90;;;;;;4191258;28;20286;-64
2021/03/14 00:30:37;;;;;;;52.20;24.50;;;1.70;99.90;;;;;;4191826;28;20261;-62
2021/03/14 00:32:39;;;;;;;54.50;25.83;;;1.70;99.90;;;;;;4191696;28;20729;-63
2021/03/14 00:34:40;;;;;;;54.50;26.47;;;1.70;99.90;;;;;;4192043;28;20278;-62
2021/03/14 00:36:41;;;;;;;42.80;21.63;;;1.70;99.90;;;;;;4191600;28;20330;-63
2021/03/14 00:38:43;;;;;;;43.13;22.50;;;1.70;99.90;;;;;;4192285;28;20615;-60
2021/03/14 00:40:44;;;;;;;39.40;20.53;;;1.70;99.90;;;;;;4191000;28;20688;-62
2021/03/14 00:42:45;;;;;;;46.37;22.70;;;1.70;99.90;;;;;;4192212;28;20329;-62
2021/03/14 00:44:46;;;;;;;53.33;25.57;;;1.60;99.90;;;;;;4191170;28;20882;-62
2021/03/14 00:46:47;;;;;;;49.23;25.03;;;1.60;99.90;;;;;;4192085;28;20394;-62
2021/03/14 00:48:48;;;;;;;58.07;29.77;;;1.60;99.90;;;;;;4191189;28;20334;-62
2021/03/14 00:50:49;;;;;;;56.77;28.00;;;1.60;99.90;;;;;;4191961;28;20307;-62
2021/03/14 00:52:50;;;;;;;47.57;24.37;;;1.60;99.90;;;;;;4190332;28;20253;-63
2021/03/14 00:54:52;;;;;;;48.43;23.80;;;1.50;99.90;;;;;;4189942;28;20606;-61
2021/03/14 00:56:54;;;;;;;48.03;24.37;;;1.50;99.90;;;;;;4190813;28;20318;-64
2021/03/14 00:58:55;;;;;;;47.67;23.40;;;1.50;99.90;;;;;;4192262;28;20327;-62
2021/03/14 01:00:56;;;;;;;41.27;20.33;;;1.50;99.90;;;;;;4191206;28;20266;-63
2021/03/14 01:02:57;;;;;;;32.77;18.10;;;1.50;99.90;;;;;;4191571;28;20322;-64
2021/03/14 01:04:58;;;;;;;37.10;17.73;;;1.50;99.90;;;;;;4190505;28;20274;-61
2021/03/14 01:06:59;;;;;;;32.50;17.03;;;1.50;99.90;;;;;;4191267;28;20315;-62
2021/03/14 01:09:01;;;;;;;27.03;15.17;;;1.50;99.90;;;;;;4191750;28;20269;-61
2021/03/14 01:11:02;;;;;;;34.87;16.47;;;1.40;99.90;;;;;;4190361;28;20273;-65
2021/03/14 01:13:03;;;;;;;32.63;16.63;;;1.50;99.90;;;;;;4191690;28;20729;-61
2021/03/14 01:15:07;;;;;;;41.43;22.63;;;1.40;99.90;;;;;;4190486;28;20327;-63
2021/03/14 01:17:08;;;;;;;40.90;21.27;;;1.50;99.90;;;;;;4191801;28;20262;-62
2021/03/14 01:19:09;;;;;;;44.77;22.07;;;1.50;99.90;;;;;;4190691;28;20337;-62
2021/03/14 01:21:11;;;;;;;48.23;24.03;;;1.50;99.90;;;;;;4191314;28;20269;-64
2021/03/14 01:23:12;;;;;;;44.77;21.73;;;1.40;99.90;;;;;;4190114;28;20273;-62
2021/03/14 01:25:14;;;;;;;50.67;22.63;;;1.30;99.90;;;;;;4191278;28;20269;-63
2021/03/14 01:27:15;;;;;;;47.17;22.93;;;1.30;99.90;;;;;;4190015;28;20262;-62
2021/03/14 01:29:16;;;;;;;50.40;23.13;;;1.20;99.90;;;;;;4191672;28;20823;-61
2021/03/14 01:31:17;;;;;;;50.23;21.50;;;1.10;99.90;;;;;;4190371;28;20696;-63
2021/03/14 01:33:18;;;;;;;52.57;22.37;;;1.00;99.90;;;;;;4191110;28;20349;-62
2021/03/14 01:35:20;;;;;;;43.77;22.83;;;1.00;99.90;;;;;;4190576;28;20323;-63
2021/03/14 01:37:23;;;;;;;56.40;25.20;;;1.00;99.90;;;;;;4190315;28;20271;-62
2021/03/14 01:39:24;;;;;;;51.97;23.53;;;1.10;99.90;;;;;;4191216;28;20323;-63
2021/03/14 01:41:26;;;;;;;41.90;20.93;;;1.00;99.90;;;;;;4190496;28;20257;-63
2021/03/14 01:43:29;;;;;;;57.83;22.00;;;1.00;99.90;;;;;;4191755;28;20261;-63
2021/03/14 01:45:31;;;;;;;52.57;22.70;;;1.00;99.90;;;;;;4190054;28;20737;-62
2021/03/14 01:47:37;;;;;;;45.87;21.77;;;1.00;99.90;;;;;;4191393;28;20983;-62
2021/03/14 01:49:39;;;;;;;50.87;23.37;;;1.00;99.90;;;;;;4189853;28;20261;-63
2021/03/14 01:51:41;;;;;;;46.47;21.07;;;0.90;99.90;;;;;;4190843;28;20663;-63
2021/03/14 01:53:42;;;;;;;47.47;22.30;;;0.90;99.90;;;;;;4190284;28;20297;-66
2021/03/14 01:55:44;;;;;;;46.80;22.63;;;1.00;99.90;;;;;;4190987;28;20274;-62
2021/03/14 01:57:46;;;;;;;50.77;20.93;;;0.90;99.90;;;;;;4190371;28;20265;-62
2021/03/14 01:59:47;;;;;;;45.90;21.03;;;0.90;99.90;;;;;;4191399;28;20692;-63
2021/03/14 02:01:48;;;;;;;49.00;23.27;;;1.00;99.90;;;;;;4189792;28;20761;-62
2021/03/14 02:03:49;;;;;;;52.60;23.17;;;1.00;99.90;;;;;;4190894;28;20261;-63
2021/03/14 02:05:52;;;;;;;45.17;22.73;;;1.00;99.90;;;;;;4189841;28;20265;-63
2021/03/14 02:07:55;;;;;;;47.97;23.37;;;1.00;99.90;;;;;;4189932;28;20310;-62
2021/03/14 02:09:57;;;;;;;48.90;23.87;;;1.10;99.90;;;;;;4189341;28;20269;-63
2021/03/14 02:12:01;;;;;;;53.87;24.10;;;1.10;99.90;;;;;;4189844;28;20269;-63
2021/03/14 02:14:04;;;;;;;41.67;21.20;;;1.10;99.90;;;;;;4190454;28;20289;-62
2021/03/14 02:16:17;;;;;;;50.53;24.43;;;1.10;99.90;;;;;;4189118;28;20270;-62
2021/03/14 02:18:19;;;;;;;41.40;19.87;;;1.10;99.90;;;;;;4189518;28;20273;-62
2021/03/14 02:20:26;;;;;;;44.23;21.00;;;1.10;99.90;;;;;;4189883;28;20323;-62
2021/03/14 02:22:28;;;;;;;38.97;19.13;;;1.20;99.90;;;;;;4190041;28;20322;-62
2021/03/14 02:24:42;;;;;;;38.87;18.47;;;1.20;99.90;;;;;;4189694;28;20339;-61
2021/03/14 02:26:43;;;;;;;43.33;18.23;;;1.20;99.90;;;;;;4190749;28;20737;-62
2021/03/14 02:28:47;;;;;;;36.40;18.17;;;1.20;99.90;;;;;;4189453;28;20358;-63
2021/03/14 02:30:48;;;;;;;38.63;17.97;;;1.20;99.90;;;;;;4191115;28;20337;-62
2021/03/14 02:32:51;;;;;;;33.53;17.23;;;1.20;99.90;;;;;;4189358;28;20286;-61
2021/03/14 02:34:58;;;;;;;28.43;15.80;;;1.20;99.90;;;;;;4190408;28;20288;-62
2021/03/14 02:37:00;;;;;;;31.30;16.43;;;1.20;99.90;;;;;;4189741;28;20261;-63
2021/03/14 02:39:03;;;;;;;40.13;18.20;;;1.20;99.90;;;;;;4190850;28;20257;-62
2021/03/14 02:41:05;;;;;;;33.50;16.10;;;1.20;99.90;;;;;;4187486;28;20277;-62
2021/03/14 02:43:07;;;;;;;36.47;18.03;;;1.30;99.90;;;;;;4190221;28;20270;-63
2021/03/14 02:45:10;;;;;;;36.93;17.97;;;1.30;99.90;;;;;;4189543;28;20277;-63
2021/03/14 02:47:12;;;;;;;35.93;18.27;;;1.30;99.90;;;;;;4190596;28;20762;-63
2021/03/14 02:49:17;;;;;;;36.37;18.40;;;1.30;99.90;;;;;;4188729;28;20285;-63
2021/03/14 02:51:19;;;;;;;38.63;17.67;;;1.30;99.90;;;;;;4189792;28;20265;-63
2021/03/14 02:53:21;;;;;;;32.40;17.90;;;1.30;99.90;;;;;;4189091;28;20265;-62
2021/03/14 02:55:24;;;;;;;35.60;17.43;;;1.30;99.90;;;;;;4189330;28;20684;-62
2021/03/14 02:57:26;;;;;;;39.13;17.27;;;1.40;99.90;;;;;;4189673;28;20308;-62
2021/03/14 02:59:27;;;;;;;39.53;20.27;;;1.40;99.90;;;;;;4190432;28;20716;-61
2021/03/14 03:01:30;;;;;;;35.70;16.90;;;1.40;99.90;;;;;;4190206;28;20322;-63
2021/03/14 03:03:32;;;;;;;35.67;16.93;;;1.40;99.90;;;;;;4188680;28;20319;-61
2021/03/14 03:05:33;;;;;;;34.73;17.33;;;1.40;99.90;;;;;;4190354;28;20274;-62
2021/03/14 03:07:35;;;;;;;34.83;17.17;;;1.40;99.90;;;;;;4188769;28;20277;-62
2021/03/14 03:09:37;;;;;;;32.07;16.20;;;1.40;99.90;;;;;;4190215;28;20277;-62
2021/03/14 03:11:39;;;;;;;35.40;17.00;;;1.30;99.90;;;;;;4188550;28;20323;-62
2021/03/14 03:13:41;;;;;;;35.43;16.63;;;1.20;99.90;;;;;;4190732;28;20297;-61
2021/03/14 03:15:44;;;;;;;37.20;16.57;;;1.20;99.90;;;;;;4188830;28;20261;-63
2021/03/14 03:17:46;;;;;;;36.73;17.20;;;1.20;99.90;;;;;;4189854;28;20265;-63
2021/03/14 03:19:48;;;;;;;34.80;17.83;;;1.20;99.90;;;;;;4188516;28;20346;-62
2021/03/14 03:21:51;;;;;;;35.60;17.20;;;1.20;99.90;;;;;;4190172;28;20269;-63
2021/03/14 03:23:53;;;;;;;37.43;18.20;;;1.30;99.90;;;;;;4188951;28;20281;-63
2021/03/14 03:25:54;;;;;;;37.53;16.80;;;1.30;99.90;;;;;;4189526;28;20741;-63
2021/03/14 03:27:55;;;;;;;35.27;17.33;;;1.40;99.90;;;;;;4191692;28;20257;-63
2021/03/14 03:29:56;;;;;;;33.37;16.27;;;1.30;99.90;;;;;;4193475;28;20336;-65
2021/03/14 03:31:58;;;;;;;29.63;16.03;;;1.40;99.90;;;;;;4192851;28;20250;-62
2021/03/14 03:33:59;;;;;;;33.63;15.73;;;1.40;99.90;;;;;;4192087;28;20691;-63
2021/03/14 03:36:00;;;;;;;27.60;14.27;;;1.40;99.90;;;;;;4193171;28;20265;-62
2021/03/14 03:38:01;;;;;;;29.97;15.37;;;1.40;99.90;;;;;;4192224;28;20269;-63
2021/03/14 03:40:05;;;;;;;27.97;15.77;;;1.30;99.90;;;;;;4193028;28;20797;-63
2021/03/14 03:42:14;;;;;;;31.33;16.20;;;1.40;99.90;;;;;;4192094;28;20265;-64
2021/03/14 03:44:19;;;;;;;42.13;19.73;;;1.40;99.90;;;;;;4192660;28;20330;-62
2021/03/14 03:46:21;;;;;;;36.07;19.80;;;1.40;99.90;;;;;;4192102;28;20593;-63
2021/03/14 03:48:31;;;;;;;29.80;15.47;;;1.40;99.90;;;;;;4192301;28;20379;-62
2021/03/14 03:50:35;;;;;;;31.45;16.55;;;1.40;99.90;;;;;;4191439;28;20906;-64
2021/03/14 03:52:36;;;;;;;31.37;16.30;;;1.40;99.90;;;;;;4193352;28;20033;-63
2021/03/14 03:54:38;;;;;;;28.23;15.83;;;1.40;99.90;;;;;;4190878;28;20356;-63
2021/03/14 03:56:40;;;;;;;30.83;16.37;;;1.40;99.90;;;;;;4192635;28;20289;-63
2021/03/14 03:58:44;;;;;;;37.67;17.87;;;1.40;99.90;;;;;;4191915;28;20756;-62
2021/03/14 04:00:46;;;;;;;28.17;15.53;;;1.40;99.90;;;;;;4193338;28;20343;-62
2021/03/14 04:02:48;;;;;;;37.80;17.80;;;1.40;99.90;;;;;;4191838;28;20327;-62
2021/03/14 04:04:50;;;;;;;31.57;16.00;;;1.40;99.90;;;;;;4192808;28;20258;-61
2021/03/14 04:06:53;;;;;;;27.50;15.27;;;1.40;99.90;;;;;;4191721;28;20728;-62
2021/03/14 04:08:54;;;;;;;31.53;16.43;;;1.40;99.90;;;;;;4192144;28;20257;-62
2021/03/14 04:10:57;;;;;;;32.53;16.57;;;1.40;99.90;;;;;;4191889;28;20323;-62
2021/03/14 04:12:59;;;;;;;31.23;16.67;;;1.50;99.90;;;;;;4192198;28;21224;-62
2021/03/14 04:15:01;;;;;;;30.60;16.33;;;1.50;99.90;;;;;;4191888;28;20313;-61
2021/03/14 04:17:05;;;;;;;30.97;15.77;;;1.50;99.90;;;;;;4191272;28;20342;-65
2021/03/14 04:19:14;;;;;;;30.33;15.30;;;1.50;99.90;;;;;;4192045;28;20335;-63
2021/03/14 04:21:16;;;;;;;30.77;15.97;;;1.40;99.90;;;;;;4190925;28;20366;-62
2021/03/14 04:23:21;;;;;;;32.50;16.53;;;1.40;99.90;;;;;;4193290;28;20737;-63
2021/03/14 04:25:23;;;;;;;37.17;17.20;;;1.40;99.90;;;;;;4191012;28;20305;-62
2021/03/14 04:27:26;;;;;;;36.27;17.03;;;1.40;99.90;;;;;;4192549;28;20375;-62
2021/03/14 04:29:30;;;;;;;38.13;17.73;;;1.40;99.90;;;;;;4192008;28;20299;-61
2021/03/14 04:31:32;;;;;;;33.27;16.90;;;1.30;99.90;;;;;;4191156;28;20262;-62
2021/03/14 04:33:34;;;;;;;35.30;17.47;;;1.30;99.90;;;;;;4190861;28;20335;-62
2021/03/14 04:35:35;;;;;;;33.60;16.90;;;1.30;99.90;;;;;;4190952;28;20258;-62
2021/03/14 04:37:39;;;;;;;34.67;17.30;;;1.30;99.90;;;;;;4191220;28;20277;-64
2021/03/14 04:39:41;;;;;;;33.23;17.03;;;1.30;99.90;;;;;;4191947;28;20703;-63
2021/03/14 04:41:45;;;;;;;33.10;16.70;;;1.30;99.90;;;;;;4191255;28;20667;-66
2021/03/14 04:43:46;;;;;;;35.83;17.40;;;1.30;99.90;;;;;;4191588;28;20291;-65
2021/03/14 04:45:50;;;;;;;33.93;16.17;;;1.30;99.90;;;;;;4191117;28;20277;-63
2021/03/14 04:47:51;;;;;;;34.43;16.40;;;1.30;99.90;;;;;;4191377;28;20791;-63
2021/03/14 04:49:52;;;;;;;36.17;17.23;;;1.30;99.90;;;;;;4191335;28;20905;-62
2021/03/14 04:51:55;;;;;;;38.03;16.87;;;1.30;99.90;;;;;;4191308;28;20277;-62
2021/03/14 04:53:58;;;;;;;28.77;15.73;;;1.30;99.90;;;;;;4191470;28;20293;-63
2021/03/14 04:56:00;;;;;;;37.87;17.60;;;1.30;99.90;;;;;;4190217;28;20335;-62
2021/03/14 04:58:02;;;;;;;32.07;17.50;;;1.30;99.90;;;;;;4191534;28;20311;-62
2021/03/14 05:00:06;;;;;;;29.70;15.73;;;1.30;99.90;;;;;;4190993;28;20269;-61
2021/03/14 05:02:08;;;;;;;32.43;16.23;;;1.30;99.90;;;;;;4191917;28;20667;-64
2021/03/14 05:04:13;;;;;;;30.03;16.10;;;1.30;99.90;;;;;;4190326;28;20334;-61
2021/03/14 05:06:17;;;;;;;23.10;13.67;;;1.40;99.90;;;;;;4191575;28;20277;-63
2021/03/14 05:08:23;;;;;;;27.83;14.23;;;1.40;99.90;;;;;;4190543;28;20281;-62
2021/03/14 05:10:26;;;;;;;25.67;14.20;;;1.40;99.90;;;;;;4191011;28;20331;-65
2021/03/14 05:12:28;;;;;;;22.63;13.40;;;1.40;99.90;;;;;;4189919;28;20273;-63
2021/03/14 05:14:30;;;;;;;22.53;12.43;;;1.30;99.90;;;;;;4191492;28;20587;-63
2021/03/14 05:16:31;;;;;;;26.47;14.13;;;1.20;99.90;;;;;;4190517;28;20261;-63
2021/03/14 05:18:33;;;;;;;22.27;12.20;;;1.10;99.90;;;;;;4191888;28;20331;-63
2021/03/14 05:20:34;;;;;;;27.00;12.13;;;1.00;99.90;;;;;;4191040;28;20257;-62
2021/03/14 05:22:36;;;;;;;28.00;14.50;;;0.90;99.90;;;;;;4191318;28;20258;-63
2021/03/14 05:24:39;;;;;;;22.90;13.90;;;0.90;99.90;;;;;;4189993;28;20307;-64
2021/03/14 05:26:43;;;;;;;23.50;12.73;;;0.90;99.90;;;;;;4190369;28;20269;-67
2021/03/14 05:28:45;;;;;;;23.87;13.03;;;1.00;99.90;;;;;;4190995;28;20249;-63
2021/03/14 05:30:46;;;;;;;23.43;12.63;;;1.10;99.90;;;;;;4190931;28;20314;-63
2021/03/14 05:32:50;;;;;;;25.90;13.90;;;1.20;99.90;;;;;;4191269;28;20262;-63
2021/03/14 05:34:51;;;;;;;24.33;12.13;;;1.20;99.90;;;;;;4190285;28;20289;-63
2021/03/14 05:36:52;;;;;;;24.20;13.00;;;1.30;99.90;;;;;;4191261;28;20618;-62
2021/03/14 05:38:54;;;;;;;26.57;13.87;;;1.30;99.90;;;;;;4190150;28;20265;-62
2021/03/14 05:40:55;;;;;;;24.33;12.97;;;1.40;99.90;;;;;;4191525;28;20257;-62
2021/03/14 05:42:58;;;;;;;22.97;12.97;;;1.40;99.90;;;;;;4189838;28;20801;-63
2021/03/14 05:45:00;;;;;;;24.20;13.60;;;1.50;99.90;;;;;;4188895;28;20266;-63
2021/03/14 05:47:01;;;;;;;21.93;12.43;;;1.60;99.90;;;;;;4187999;28;20648;-64
2021/03/14 05:49:03;;;;;;;26.07;14.93;;;1.70;99.90;;;;;;4190771;28;20265;-64
2021/03/14 05:51:07;;;;;;;29.50;15.53;;;1.90;99.90;;;;;;4186941;28;20327;-63
2021/03/14 05:53:09;;;;;;;24.47;13.67;;;2.10;99.90;;;;;;4191441;28;20278;-65
2021/03/14 05:55:15;;;;;;;27.70;14.00;;;2.30;99.90;;;;;;4189442;28;20691;-63
2021/03/14 05:57:18;;;;;;;32.37;15.77;;;2.40;99.90;;;;;;4190619;28;20266;-63
2021/03/14 05:59:19;;;;;;;28.77;14.93;;;2.40;99.90;;;;;;4190603;28;20265;-61
2021/03/14 06:01:25;;;;;;;22.33;13.37;;;2.50;99.90;;;;;;4190552;28;20261;-63
2021/03/14 06:03:27;;;;;;;23.27;12.53;;;2.60;99.90;;;;;;4190161;28;20664;-62
2021/03/14 06:05:30;;;;;;;25.20;13.70;;;2.60;99.90;;;;;;4190082;28;20282;-63
2021/03/14 06:07:31;;;;;;;26.23;12.90;;;2.70;99.90;;;;;;4190308;28;20295;-63
2021/03/14 06:09:33;;;;;;;27.57;15.60;;;2.60;99.90;;;;;;4189342;28;20269;-63
2021/03/14 06:11:34;;;;;;;25.90;15.10;;;2.50;99.90;;;;;;4189761;28;20606;-60
2021/03/14 06:13:35;;;;;;;24.97;13.57;;;2.50;99.90;;;;;;4188313;28;20688;-62
2021/03/14 06:15:36;;;;;;;29.63;13.57;;;2.50;99.90;;;;;;4190138;28;20343;-62
2021/03/14 06:17:38;;;;;;;26.27;15.17;;;2.50;99.90;;;;;;4189582;28;20320;-63
2021/03/14 06:19:39;;;;;;;28.30;14.50;;;2.50;99.90;;;;;;4190596;28;20654;-64
2021/03/14 06:21:40;;;;;;;28.33;14.67;;;2.60;99.90;;;;;;4188705;28;20941;-62
2021/03/14 06:24:00;;;;;;;28.13;15.33;;;2.60;99.90;;;;;;4190145;28;20277;-63
2021/03/14 06:26:13;;;;;;;31.42;15.80;;;2.70;99.90;;;;;;4188271;28;20292;-62
2021/03/14 06:28:15;;;;;;;27.17;14.60;;;2.90;99.90;;;;;;4191059;28;20025;-62
2021/03/14 06:30:17;;;;;;;23.33;13.53;;;3.00;99.90;;;;;;4188938;28;20265;-62
2021/03/14 06:32:18;;;;;;;28.87;14.10;;;3.20;99.90;;;;;;4190592;28;20318;-64
2021/03/14 06:34:26;;;;;;;33.20;14.77;;;3.40;99.90;;;;;;4188965;28;20390;-63
2021/03/14 06:36:27;;;;;;;36.23;17.40;;;3.60;99.90;;;;;;4190316;28;20281;-64
2021/03/14 06:38:30;;;;;;;38.70;17.63;;;3.80;99.90;;;;;;4188459;28;20587;-63
2021/03/14 06:40:31;;;;;;;31.43;17.13;;;4.00;99.90;;;;;;4188408;28;20266;-64
2021/03/14 06:42:33;;;;;;;26.73;14.50;;;4.20;99.90;;;;;;4189573;28;20327;-63
2021/03/14 06:44:37;;;;;;;34.63;16.87;;;4.40;99.90;;;;;;4189827;28;20285;-63
2021/03/14 06:46:39;;;;;;;18.30;10.90;;;4.50;99.90;;;;;;4189681;28;20269;-64
2021/03/14 06:48:40;;;;;;;23.53;12.47;;;4.50;99.90;;;;;;4189745;28;20337;-64
2021/03/14 06:50:42;;;;;;;18.97;11.00;;;4.50;99.90;;;;;;4190124;28;20276;-63
2021/03/14 06:53:19;;;;;;;26.00;11.40;;;4.50;99.90;;;;;;4188369;28;20331;-63
2021/03/14 06:55:25;;;;;;;18.80;10.20;;;4.60;99.90;;;;;;4184262;28;20336;-64
2021/03/14 06:57:27;;;;;;;19.57;10.80;;;4.70;99.90;;;;;;4189767;28;20320;-64
2021/03/14 06:59:30;;;;;;;22.93;10.80;;;4.70;99.90;;;;;;4190091;28;20261;-63
2021/03/14 07:01:31;;;;;;;15.70;9.60;;;4.80;99.90;;;;;;4189246;28;20257;-64
2021/03/14 07:03:32;;;;;;;23.90;11.17;;;5.00;99.90;;;;;;4193248;28;20768;-63
2021/03/14 07:05:33;;;;;;;22.10;10.53;;;5.40;99.90;;;;;;4191602;28;20285;-62
2021/03/14 07:07:42;;;;;;;22.77;11.07;;;5.80;99.90;;;;;;4193348;28;20273;-63
2021/03/14 07:09:44;;;;;;;23.47;9.97;;;6.00;99.90;;;;;;4191729;28;20316;-62
2021/03/14 07:11:46;;;;;;;15.23;9.20;;;6.20;99.90;;;;;;4193661;28;20261;-63
2021/03/14 07:13:52;;;;;;;14.37;9.27;;;6.40;99.90;;;;;;4191625;28;20753;-62
2021/03/14 07:15:53;;;;;;;15.63;9.77;;;6.70;99.90;;;;;;4193044;28;20281;-62
2021/03/14 07:18:00;;;;;;;18.70;9.00;;;6.90;99.90;;;;;;4192349;28;20273;-62
2021/03/14 07:20:07;;;;;;;15.20;8.43;;;7.40;99.90;;;;;;4193480;28;20708;-63
2021/03/14 07:22:10;;;;;;;22.77;10.70;;;7.70;99.90;;;;;;4191524;28;20278;-64
2021/03/14 07:24:13;;;;;;;16.30;10.10;;;7.80;99.90;;;;;;4193586;28;20266;-64
2021/03/14 07:26:14;;;;;;;23.40;11.30;;;7.70;99.90;;;;;;4189987;28;20036;-64
2021/03/14 07:28:16;;;;;;;20.93;11.53;;;7.60;99.90;;;;;;4193251;28;20032;-64
2021/03/14 07:30:18;;;;;;;20.67;11.50;;;7.80;99.90;;;;;;4191848;28;20037;-63
2021/03/14 07:32:20;;;;;;;22.33;11.93;;;8.10;99.90;;;;;;4192078;28;20036;-64
2021/03/14 07:34:21;;;;;;;29.03;12.27;;;8.50;99.90;;;;;;4192136;28;20020;-63
2021/03/14 07:36:22;;;;;;;21.37;10.10;;;8.80;99.90;;;;;;4192532;28;20032;-62
2021/03/14 07:38:24;;;;;;;17.17;10.20;;;8.90;99.90;;;;;;4192029;28;20090;-64
2021/03/14 07:40:29;;;;;;;14.27;7.83;;;9.30;99.90;;;;;;4192044;28;20098;-66
2021/03/14 07:42:30;;;;;;;13.47;7.80;;;9.90;99.90;;;;;;4192732;28;20090;-68
2021/03/14 07:44:32;;;;;;;13.70;8.13;;;9.90;99.90;;;;;;4191154;28;20074;-64
2021/03/14 07:46:34;;;;;;;10.57;7.53;;;9.60;99.90;;;;;;4191594;28;20542;-64
2021/03/14 07:48:40;;;;;;;13.17;7.50;;;9.10;99.90;;;;;;4191859;28;20090;-63
2021/03/14 07:50:45;;;;;;;12.83;8.30;;;8.70;99.90;;;;;;4192901;28;20418;-65
2021/03/14 07:52:48;;;;;;;11.33;7.70;;;8.30;99.90;;;;;;4191981;28;20094;-63
2021/03/14 07:54:55;;;;;;;12.77;7.67;;;8.10;99.90;;;;;;4192530;28;20098;-64
2021/03/14 07:57:00;;;;;;;12.03;8.70;;;8.00;99.90;;;;;;4191446;28;20102;-64
2021/03/14 07:59:01;;;;;;;20.13;8.40;;;7.90;99.90;;;;;;4192637;28;20533;-62
2021/03/14 08:01:34;;;;;;;13.27;7.60;;;7.80;99.90;;;;;;4191492;28;20551;-64
2021/03/14 08:03:38;;;;;;;11.80;7.53;;;7.70;99.90;;;;;;4192605;28;20090;-63
2021/03/14 08:05:43;;;;;;;13.00;7.50;;;7.70;99.90;;;;;;4191178;28;20411;-63
2021/03/14 08:07:46;;;;;;;12.77;8.50;;;7.70;99.90;;;;;;4192694;28;20078;-63
2021/03/14 08:09:50;;;;;;;15.70;8.37;;;7.70;99.90;;;;;;4191365;28;20033;-65
2021/03/14 08:12:24;;;;;;;15.57;8.87;;;7.70;99.90;;;;;;4192386;28;20040;-62
2021/03/14 08:14:42;;;;;;;17.83;8.77;;;7.50;99.90;;;;;;4190096;28;20044;-63
2021/03/14 08:17:12;;;;;;;14.77;9.47;;;7.40;99.90;;;;;;4192443;28;20408;-66
2021/03/14 08:19:13;;;;;;;13.93;8.65;;;7.30;99.90;;;;;;4190655;28;20070;-63
2021/03/14 08:21:35;;;;;;;15.33;8.67;;;7.20;99.90;;;;;;4190421;28;20032;-63
2021/03/14 08:23:42;;;;;;;14.93;8.83;;;7.20;99.90;;;;;;4190942;28;20036;-65
2021/03/14 08:25:48;;;;;;;17.73;9.37;;;7.20;99.90;;;;;;4190065;28;20044;-63
2021/03/14 08:27:55;;;;;;;16.43;8.53;;;7.20;99.90;;;;;;4190659;28;20121;-68
2021/03/14 08:29:56;;;;;;;11.97;8.27;;;7.20;99.90;;;;;;4192197;28;20061;-65
2021/03/14 08:31:57;;;;;;;13.10;8.90;;;7.20;99.90;;;;;;4190604;28;20365;-64
2021/03/14 08:33:58;;;;;;;19.17;9.90;;;7.30;99.90;;;;;;4192063;28;20054;-64
2021/03/14 08:36:07;;;;;;;25.50;11.20;;;7.30;99.90;;;;;;4190339;28;20494;-62
2021/03/14 08:38:27;;;;;;;20.27;9.80;;;7.30;99.90;;;;;;4192330;28;20457;-62
2021/03/14 08:40:33;;;;;;;15.23;9.17;;;7.30;99.90;;;;;;4190444;28;20041;-64
2021/03/14 08:42:51;;;;;;;19.57;11.60;;;7.30;99.90;;;;;;4191666;28;20044;-63
2021/03/14 08:44:52;;;;;;;18.37;10.33;;;7.20;99.90;;;;;;4190238;28;20125;-64
2021/03/14 08:46:53;;;;;;;20.87;10.50;;;7.30;99.90;;;;;;4191509;28;20041;-66
2021/03/14 08:48:54;;;;;;;19.03;10.17;;;7.70;99.90;;;;;;4190371;28;20036;-64
2021/03/14 08:50:56;;;;;;;15.27;8.57;;;8.00;99.90;;;;;;4191478;28;20120;-65
2021/03/14 08:52:57;;;;;;;17.10;9.37;;;8.50;99.90;;;;;;4188917;28;20105;-64
2021/03/14 08:54:58;;;;;;;14.27;9.23;;;8.70;99.90;;;;;;4189318;28;20086;-64
2021/03/14 08:57:03;;;;;;;11.63;7.63;;;8.90;99.90;;;;;;4189041;28;20082;-63
2021/03/14 08:59:12;;;;;;;17.13;8.33;;;9.10;99.90;;;;;;4192018;28;20510;-64
2021/03/14 09:01:14;;;;;;;10.77;7.53;;;9.30;99.90;;;;;;4190512;28;20055;-64
2021/03/14 09:03:15;;;;;;;12.90;8.03;;;9.20;99.90;;;;;;4191597;28;20028;-65
2021/03/14 09:05:23;;;;;;;15.83;8.07;;;9.20;99.90;;;;;;4190308;28;20090;-64
2021/03/14 09:07:25;;;;;;;11.83;7.73;;;9.40;99.90;;;;;;4190740;28;20447;-65
2021/03/14 09:09:26;;;;;;;15.57;8.20;;;9.30;99.90;;;;;;4190852;28;20025;-63
2021/03/14 09:11:37;;;;;;;12.67;7.83;;;9.20;99.90;;;;;;4190139;28;20062;-67
2021/03/14 09:13:38;;;;;;;12.53;8.30;;;9.30;99.90;;;;;;4190397;28;20028;-64
2021/03/14 09:15:49;;;;;;;13.10;8.27;;;9.40;99.90;;;;;;4188531;28;20048;-63
2021/03/14 09:17:50;;;;;;;;;;;9.40;99.90;;;;;;4191573;28;20059;-65
2021/03/14 09:19:55;;;;;;;;;;;9.40;99.90;;;;;;4190858;28;19916;-64
2021/03/14 09:22:00;;;;;;;11.33;7.47;;;9.30;99.90;;;;;;4190979;28;19912;-64
2021/03/14 09:24:02;;;;;;;14.40;7.57;;;9.30;99.90;;;;;;4189951;28;20094;-66
2021/03/14 09:26:03;;;;;;;14.43;8.20;;;9.20;99.90;;;;;;4190290;28;20476;-63
2021/03/14 09:28:04;;;;;;;10.40;7.63;;;9.30;99.90;;;;;;4189785;28;20041;-63
2021/03/14 09:30:19;;;;;;;12.37;7.80;;;9.30;99.90;;;;;;4191852;28;20028;-63
2021/03/14 09:32:41;;;;;;;12.33;6.97;;;9.40;99.90;;;;;;4189730;28;20028;-63
2021/03/14 09:34:42;;;;;;;14.60;8.33;;;9.50;99.90;;;;;;4191304;28;20036;-64
2021/03/14 09:36:50;;;;;;;11.73;7.77;;;9.50;99.90;;;;;;4189533;28;20114;-64
2021/03/14 09:38:59;;;;;;;12.33;7.63;;;9.60;99.90;;;;;;4191598;28;20036;-65
2021/03/14 09:41:01;;;;;;;14.57;7.53;;;9.60;99.90;;;;;;4189665;28;20468;-64
2021/03/14 09:43:25;;;;;;;10.50;6.97;;;9.60;99.90;;;;;;4191063;28;20086;-64
2021/03/14 09:45:28;;;;;;;10.60;7.37;;;9.50;99.90;;;;;;4189883;28;20093;-64
2021/03/14 09:47:29;;;;;;;12.97;7.00;;;9.40;99.90;;;;;;4191414;28;20431;-64
2021/03/14 09:49:30;;;;;;;11.50;7.73;;;9.30;99.90;;;;;;4189668;28;20049;-63
2021/03/14 09:51:32;;;;;;;13.03;7.57;;;9.10;99.90;;;;;;4188769;28;20044;-65
2021/03/14 09:53:38;;;;;;;15.63;7.90;;;9.10;99.90;;;;;;4189649;28;20078;-65
2021/03/14 09:55:47;;;;;;;16.13;7.20;;;9.10;99.90;;;;;;4190176;28;20755;-65
2021/03/14 09:57:48;;;;;;;13.13;6.77;;;9.10;99.90;;;;;;4189175;28;20541;-67
2021/03/14 09:59:50;;;;;;;26.30;14.73;;;9.00;99.90;;;;;;4190440;28;20036;-63
2021/03/14 10:01:52;;;;;;;13.27;9.60;;;9.00;99.90;;;;;;4189567;28;20037;-62
2021/03/14 10:04:00;;;;;;;14.20;8.33;;;9.00;99.90;;;;;;4190466;28;20041;-62
2021/03/14 10:06:04;;;;;;;12.67;8.50;;;9.00;99.90;;;;;;4188818;28;20021;-63
2021/03/14 10:08:06;;;;;;;12.47;7.80;;;9.00;99.90;;;;;;4190180;28;20121;-63
2021/03/14 10:10:11;;;;;;;14.50;8.30;;;8.90;99.90;;;;;;4189358;28;20020;-64
2021/03/14 10:12:14;;;;;;;15.53;9.63;;;8.80;99.90;;;;;;4189847;28;20382;-63
2021/03/14 10:14:17;;;;;;;12.03;7.93;;;8.80;99.90;;;;;;4189639;28;20036;-62
2021/03/14 10:16:19;;;;;;;15.93;9.63;;;8.80;99.90;;;;;;4189063;28;20044;-63
2021/03/14 10:18:22;;;;;;;17.53;9.27;;;8.80;99.90;;;;;;4189890;28;20162;-63
2021/03/14 10:20:23;;;;;;;15.67;9.30;;;8.80;99.90;;;;;;4188880;28;20423;-63
2021/03/14 10:22:31;;;;;;;14.57;8.43;;;8.80;99.90;;;;;;4190526;28;20040;-63
2021/03/14 10:24:43;;;;;;;17.07;9.50;;;8.80;99.90;;;;;;4189073;28;20498;-64
2021/03/14 10:26:54;;;;;;;15.93;9.00;;;8.80;99.90;;;;;;4189873;28;20024;-63
2021/03/14 10:28:55;;;;;;;12.97;8.13;;;8.80;99.90;;;;;;4189205;28;20680;-63
2021/03/14 10:31:06;;;;;;;16.20;9.20;;;8.80;99.90;;;;;;4190395;28;20094;-63
2021/03/14 10:33:08;;;;;;;14.93;8.23;;;8.90;99.90;;;;;;4188484;28;20078;-63
2021/03/14 10:35:11;;;;;;;14.87;8.20;;;8.90;99.90;;;;;;4189561;28;20488;-62
2021/03/14 10:37:33;;;;;;;12.50;8.27;;;8.90;99.90;;;;;;4187973;28;20028;-62